Time;durP1;ratioP1;P1;durP2;ratioP2;P2;SDS_P1;SDS_P2;PMS_P1;PMS_P2;Temp;Humidity;BMP_temperature;BMP_pressure;BME280_temperature;BME280_humidity;BME280_pressure;Samples;Min_cycle;Max_cycle;Signal;HPM_P1;HPM_P2
2022/05/13 00:03:00;;;;;;;8.38;2.72;;;;;;;13.48;80.94;100852.88;8325275;28;20304;-63
2022/05/13 00:07:01;;;;;;;10.60;2.72;;;;;;;13.32;81.72;100854.53;8317359;28;20037;-63
2022/05/13 00:11:04;;;;;;;8.38;2.30;;;;;;;13.21;82.64;100846.59;8318085;28;20106;-63
2022/05/13 00:15:08;;;;;;;8.73;3.20;;;;;;;13.22;82.86;100848.31;8317604;28;20049;-63
2022/05/13 00:19:11;;;;;;;11.45;2.83;;;;;;;13.12;83.50;100856.47;8314520;28;20045;-63
2022/05/13 00:23:11;;;;;;;23.08;3.38;;;;;;;13.05;83.79;100858.06;8315522;28;20072;-63
2022/05/13 00:27:12;;;;;;;8.27;2.75;;;;;;;12.97;84.02;100865.22;8317082;28;20055;-63
2022/05/13 00:31:12;;;;;;;8.40;2.70;;;;;;;13.00;83.94;100860.41;8317632;28;20041;-63
2022/05/13 00:35:12;;;;;;;9.25;2.65;;;;;;;12.84;84.21;100851.97;8309371;28;20050;-63
2022/05/13 00:39:14;;;;;;;8.90;3.30;;;;;;;12.57;85.55;100851.03;8310930;28;20029;-63
2022/05/13 00:43:35;;;;;;;6.75;2.40;;;;;;;12.63;86.15;100850.47;8315422;28;20042;-63
2022/05/13 00:47:35;;;;;;;7.75;2.88;;;;;;;12.55;85.68;100843.03;8294169;28;20037;-63
2022/05/13 00:51:39;;;;;;;6.40;2.58;;;;;;;12.71;85.33;100853.28;8317079;28;20113;-63
2022/05/13 00:55:44;;;;;;;8.50;3.00;;;;;;;12.68;86.56;100853.56;8329996;28;20034;-63
2022/05/13 00:59:46;;;;;;;9.68;3.03;;;;;;;12.66;85.07;100842.88;8315330;28;20037;-63
2022/05/13 01:03:48;;;;;;;9.68;2.80;;;;;;;12.17;86.96;100836.81;8314101;28;20101;-62
2022/05/13 01:07:50;;;;;;;8.90;2.70;;;;;;;11.86;88.40;100828.78;8314490;28;20121;-62
2022/05/13 01:11:54;;;;;;;7.68;2.90;;;;;;;11.73;89.89;100839.06;8315500;28;20053;-62
2022/05/13 01:15:55;;;;;;;6.43;2.60;;;;;;;12.10;87.83;100841.09;8313991;28;20406;-63
2022/05/13 01:19:55;;;;;;;11.13;2.90;;;;;;;11.67;89.38;100845.03;8317621;28;20097;-63
2022/05/13 01:23:56;;;;;;;10.77;3.20;;;;;;;11.78;88.58;100842.19;8327787;28;20547;-63
2022/05/13 01:28:07;;;;;;;6.32;2.83;;;;;;;11.60;89.51;100833.00;8328015;28;20280;-62
2022/05/13 01:32:07;;;;;;;8.07;2.30;;;;;;;12.00;87.26;100840.22;8314692;28;20056;-62
2022/05/13 01:36:10;;;;;;;9.38;2.00;;;;;;;11.92;86.92;100843.63;8301446;28;20038;-62
2022/05/13 01:40:10;;;;;;;7.95;2.78;;;;;;;11.87;87.54;100835.91;8313719;28;20038;-62
2022/05/13 01:44:11;;;;;;;5.55;2.40;;;;;;;11.82;87.77;100849.06;8314326;28;20033;-62
2022/05/13 01:48:12;;;;;;;8.67;2.40;;;;;;;12.00;86.47;100856.47;8314260;28;20038;-62
2022/05/13 01:52:12;;;;;;;6.85;2.50;;;;;;;11.84;86.52;100855.16;8313643;28;20277;-63
2022/05/13 01:56:12;;;;;;;7.25;2.60;;;;;;;11.96;86.23;100849.63;8313053;28;20026;-63
2022/05/13 02:00:13;;;;;;;8.85;2.50;;;;;;;12.11;85.34;100859.06;8311793;28;20038;-62
2022/05/13 02:04:14;;;;;;;4.43;1.70;;;;;;;12.08;85.47;100853.91;8312563;28;20092;-62
2022/05/13 02:08:16;;;;;;;11.07;2.80;;;;;;;12.06;85.69;100855.91;8313936;28;20034;-62
2022/05/13 02:12:17;;;;;;;9.23;2.00;;;;;;;12.71;81.77;100853.28;8320534;28;20049;-62
2022/05/13 02:16:18;;;;;;;6.65;1.73;;;;;;;12.95;80.12;100861.78;8317239;28;20040;-63
2022/05/13 02:20:18;;;;;;;4.97;1.73;;;;;;;13.05;78.64;100859.97;8319978;28;20042;-63
2022/05/13 02:24:19;;;;;;;5.85;1.13;;;;;;;13.14;77.24;100849.03;8318836;28;20038;-63
2022/05/13 02:28:19;;;;;;;4.45;1.73;;;;;;;13.19;76.61;100844.03;8318489;28;20034;-63
2022/05/13 02:32:20;;;;;;;4.88;1.67;;;;;;;13.21;76.15;100849.31;8318027;28;20037;-63
2022/05/13 02:36:21;;;;;;;5.80;1.60;;;;;;;13.21;75.14;100838.47;8323426;28;20042;-63
2022/05/13 02:41:11;;;;;;;5.50;1.40;;;;;;;13.14;74.92;100835.47;8318080;28;20113;-63
2022/05/13 02:44:42;;;;;;;5.30;1.67;;;;;;;13.10;74.63;100836.78;8309899;28;20042;-63
2022/05/13 02:48:43;;;;;;;8.05;1.50;;;;;;;13.00;75.17;100849.53;8318292;28;20030;-63
2022/05/13 02:52:45;;;;;;;6.88;1.38;;;;;;;12.95;75.30;100845.50;8318428;28;20037;-62
2022/05/13 02:56:46;;;;;;;3.47;1.38;;;;;;;12.84;75.84;100851.13;8317853;28;20038;-62
2022/05/13 03:00:46;;;;;;;3.07;1.17;;;;;;;12.75;76.37;100843.88;8317816;28;20069;-62
2022/05/13 03:04:47;;;;;;;8.27;1.55;;;;;;;12.70;76.16;100851.56;8321885;28;20300;-63
2022/05/13 03:08:48;;;;;;;6.88;1.77;;;;;;;12.65;76.36;100857.44;8318372;28;20034;-63
2022/05/13 03:12:48;;;;;;;4.15;1.17;;;;;;;12.59;76.81;100849.03;8318258;28;20026;-62
2022/05/13 03:16:49;;;;;;;6.63;1.55;;;;;;;12.43;77.40;100854.19;8331901;28;20483;-62
2022/05/13 03:20:49;;;;;;;5.47;1.20;;;;;;;12.21;78.32;100862.63;8318456;28;20034;-62
2022/05/13 03:24:50;;;;;;;4.20;1.23;;;;;;;11.96;79.47;100858.63;8302868;28;20041;-62
2022/05/13 03:28:50;;;;;;;9.73;1.73;;;;;;;11.83;80.09;100856.16;8317290;28;20479;-62
2022/05/13 03:32:52;;;;;;;5.88;1.80;;;;;;;11.60;81.07;100860.09;8316840;28;20131;-62
2022/05/13 03:36:54;;;;;;;6.03;1.40;;;;;;;11.56;81.38;100853.22;8316578;28;20065;-62
2022/05/13 03:40:54;;;;;;;4.57;1.50;;;;;;;11.52;81.33;100840.97;8315849;28;20057;-62
2022/05/13 03:44:55;;;;;;;3.63;1.60;;;;;;;11.61;81.15;100834.72;8321460;28;20093;-62
2022/05/13 03:48:56;;;;;;;4.70;1.40;;;;;;;11.47;81.85;100832.41;8321013;28;20045;-63
2022/05/13 03:52:56;;;;;;;10.88;2.13;;;;;;;11.43;82.24;100847.22;8325626;28;20049;-63
2022/05/13 03:56:56;;;;;;;9.38;1.95;;;;;;;11.41;82.74;100849.19;8328030;28;20037;-63
2022/05/13 04:00:57;;;;;;;6.45;1.75;;;;;;;11.23;83.53;100840.00;8315815;28;20056;-63
2022/05/13 04:09:18;;;;;;;8.38;2.63;;;;;;;11.22;84.23;100837.44;8311086;28;20065;-63
2022/05/13 04:17:39;;;;;;;5.72;2.13;;;;;;;11.35;84.32;100849.75;8308375;28;20121;-63
2022/05/13 04:21:41;;;;;;;8.93;2.22;;;;;;;11.49;83.84;100843.94;8312530;28;20037;-63
2022/05/13 04:25:41;;;;;;;7.07;1.95;;;;;;;11.69;83.55;100842.19;8316540;28;20486;-63
2022/05/13 04:29:42;;;;;;;5.72;2.20;;;;;;;11.72;82.54;100848.16;8312169;28;20467;-63
2022/05/13 04:33:42;;;;;;;9.45;2.25;;;;;;;11.80;82.38;100861.88;8311596;28;20040;-63
2022/05/13 04:37:44;;;;;;;7.57;2.30;;;;;;;11.74;82.61;100861.56;8325807;28;20053;-63
2022/05/13 04:42:53;;;;;;;11.95;2.35;;;;;;;11.80;82.83;100852.88;8314590;28;20037;-63
2022/05/13 04:46:05;;;;;;;8.63;2.17;;;;;;;11.77;83.10;100862.16;8315255;28;20070;-63
2022/05/13 04:50:06;;;;;;;5.68;2.05;;;;;;;11.99;82.94;100868.31;8311319;28;20045;-63
2022/05/13 04:54:07;;;;;;;7.93;1.95;;;;;;;12.11;82.42;100884.31;8318641;28;20030;-63
2022/05/13 04:58:08;;;;;;;14.50;2.50;;;;;;;12.23;82.61;100882.31;8318513;28;20122;-63
2022/05/13 05:02:08;;;;;;;5.50;2.10;;;;;;;12.46;81.92;100891.84;8308032;28;20042;-63
2022/05/13 05:06:10;;;;;;;9.83;2.43;;;;;;;12.50;81.83;100904.16;8307364;28;20034;-63
2022/05/13 05:10:10;;;;;;;7.82;2.20;;;;;;;12.84;81.69;100894.53;8324523;28;20276;-63
2022/05/13 05:14:11;;;;;;;10.93;2.40;;;;;;;13.04;80.51;100894.38;8310138;28;20494;-63
2022/05/13 05:18:12;;;;;;;7.18;1.80;;;;;;;13.25;79.83;100905.03;8309908;28;20494;-63
2022/05/13 05:22:12;;;;;;;8.73;1.90;;;;;;;13.57;78.89;100900.00;8311108;28;20037;-63
2022/05/13 05:26:13;;;;;;;7.27;1.97;;;;;;;13.83;76.97;100898.31;8317333;28;20044;-63
2022/05/13 05:30:15;;;;;;;6.55;2.30;;;;;;;14.10;76.03;100909.16;8324953;28;20276;-63
2022/05/13 05:34:18;;;;;;;7.18;1.35;;;;;;;14.35;75.23;100916.59;8285201;28;20499;-62
2022/05/13 05:38:18;;;;;;;9.18;2.05;;;;;;;14.53;74.80;100908.41;8318586;28;20030;-62
2022/05/13 05:42:19;;;;;;;6.13;1.70;;;;;;;14.63;73.49;100926.38;8308798;28;20109;-62
2022/05/13 05:46:19;;;;;;;11.38;2.47;;;;;;;14.66;74.09;100931.50;8309515;28;20037;-62
2022/05/13 05:50:20;;;;;;;15.00;2.00;;;;;;;14.63;73.19;100931.81;8308821;28;20044;-62
2022/05/13 05:58:40;;;;;;;10.27;2.55;;;;;;;14.49;73.99;100940.53;8303180;28;20041;-62
2022/05/13 06:02:41;;;;;;;7.53;1.70;;;;;;;14.51;75.22;100949.38;8311814;28;20137;-62
2022/05/13 06:06:41;;;;;;;8.40;1.50;;;;;;;14.45;74.89;100952.72;8312091;28;20281;-62
2022/05/13 06:10:41;;;;;;;9.88;2.15;;;;;;;14.41;74.34;100956.78;8312746;28;20310;-62
2022/05/13 06:14:42;;;;;;;7.15;1.60;;;;;;;14.47;73.90;100968.91;8308182;28;20038;-62
2022/05/13 06:18:42;;;;;;;10.85;1.80;;;;;;;14.51;75.50;100971.16;8311887;28;20034;-62
2022/05/13 06:22:42;;;;;;;8.98;1.65;;;;;;;14.34;73.83;100979.31;8311271;28;20125;-62
2022/05/13 06:26:43;;;;;;;10.68;2.13;;;;;;;14.43;74.47;100973.81;8308109;28;20626;-62
2022/05/13 06:30:43;;;;;;;9.05;2.00;;;;;;;14.89;72.69;100976.31;8310717;28;20403;-62
2022/05/13 06:34:44;;;;;;;9.45;1.60;;;;;;;15.59;72.72;100976.13;8312512;28;20112;-62
2022/05/13 06:38:44;;;;;;;6.63;1.85;;;;;;;15.77;71.01;100980.69;8308813;28;20080;-62
2022/05/13 06:42:45;;;;;;;11.15;1.90;;;;;;;15.77;70.53;100983.41;8310311;28;20038;-62
2022/05/13 06:46:47;;;;;;;7.03;2.17;;;;;;;15.46;69.96;100986.63;8310807;28;20044;-62
2022/05/13 06:50:48;;;;;;;13.45;1.77;;;;;;;15.70;71.94;100989.50;8305384;28;20116;-62
2022/05/13 06:54:49;;;;;;;12.07;2.53;;;;;;;15.67;69.82;100995.28;8308285;28;20049;-62
2022/05/13 06:58:49;;;;;;;8.53;1.77;;;;;;;16.09;70.63;100994.44;8300918;28;20033;-62
2022/05/13 07:02:49;;;;;;;13.23;1.80;;;;;;;16.32;68.54;101001.91;8296962;28;20289;-62
2022/05/13 07:06:50;;;;;;;7.53;1.77;;;;;;;16.61;68.17;101006.94;8301211;28;20044;-63
2022/05/13 07:10:50;;;;;;;8.95;1.98;;;;;;;16.69;67.66;101004.22;8305552;28;20084;-62
2022/05/13 07:14:53;;;;;;;5.25;1.45;;;;;;;16.98;66.76;101010.06;8296040;28;20044;-63
2022/05/13 07:18:53;;;;;;;6.93;1.48;;;;;;;17.07;66.05;100998.13;8307486;28;20052;-63
2022/05/13 07:22:55;;;;;;;7.80;1.90;;;;;;;17.14;65.97;100999.16;8306050;28;20038;-63
2022/05/13 07:26:56;;;;;;;8.20;1.40;;;;;;;17.14;65.61;101004.63;8302009;28;20350;-63
2022/05/13 07:30:56;;;;;;;6.82;1.42;;;;;;;17.10;65.46;101008.69;8305729;28;20046;-63
2022/05/13 07:34:56;;;;;;;6.82;1.63;;;;;;;16.93;66.09;101013.28;8306672;28;20040;-63
2022/05/13 07:43:17;;;;;;;8.00;1.10;;;;;;;17.23;65.87;101014.53;8301970;28;20030;-63
2022/05/13 07:47:19;;;;;;;7.85;1.50;;;;;;;17.55;64.33;101014.53;8299362;28;20487;-62
2022/05/13 07:51:19;;;;;;;5.25;1.20;;;;;;;17.45;64.08;101011.13;8305357;28;20093;-62
2022/05/13 07:55:20;;;;;;;4.45;1.30;;;;;;;17.55;63.76;101020.00;8291759;28;20093;-62
2022/05/13 07:59:21;;;;;;;10.40;1.27;;;;;;;17.35;64.11;101024.94;8302083;28;20045;-62
2022/05/13 08:03:21;;;;;;;6.70;1.85;;;;;;;17.48;63.97;101024.44;8293576;28;20125;-62
2022/05/13 08:07:22;;;;;;;4.93;1.45;;;;;;;17.65;63.61;101025.28;8295787;28;20038;-62
2022/05/13 08:11:29;;;;;;;4.88;1.58;;;;;;;17.64;63.38;101024.41;8295350;28;20122;-62
2022/05/13 08:15:29;;;;;;;5.75;1.17;;;;;;;17.95;62.54;101022.63;8298500;28;20037;-62
2022/05/13 08:19:30;;;;;;;8.15;1.33;;;;;;;18.25;62.49;101019.09;8316517;28;20038;-62
2022/05/13 08:23:30;;;;;;;8.20;1.23;;;;;;;18.22;61.58;101033.16;8298508;28;20034;-62
2022/05/13 08:27:32;;;;;;;6.45;1.73;;;;;;;18.21;60.88;101034.16;8297681;28;20053;-62
2022/05/13 08:31:33;;;;;;;6.60;1.38;;;;;;;18.38;61.73;101029.50;8305950;28;20029;-62
2022/05/13 08:35:33;;;;;;;6.10;1.38;;;;;;;18.43;60.69;101033.44;8282600;28;20083;-62
2022/05/13 08:39:34;;;;;;;7.22;1.67;;;;;;;18.70;60.80;101029.34;8294535;28;20038;-62
2022/05/13 08:43:39;;;;;;;4.40;1.35;;;;;;;19.04;59.44;101035.28;8298180;28;20045;-62
2022/05/13 08:47:49;;;;;;;7.20;1.27;;;;;;;19.48;59.12;101027.25;8300323;28;20487;-63
2022/05/13 08:53:29;;;;;;;10.98;1.35;;;;;;;19.33;57.40;101038.16;8301765;28;20494;-63
2022/05/13 08:56:54;;;;;;;4.93;0.90;;;;;;;19.75;55.62;101037.56;8293604;28;20045;-63
2022/05/13 09:00:59;;;;;;;4.88;0.93;;;;;;;19.48;55.04;101035.47;8304035;28;20050;-63
2022/05/13 09:05:04;;;;;;;7.88;0.95;;;;;;;19.90;56.06;101036.56;8298442;28;20491;-63
2022/05/13 09:09:06;;;;;;;4.43;1.50;;;;;;;19.89;56.19;101031.28;8304145;28;20038;-63
2022/05/13 09:13:21;;;;;;;5.20;0.90;;;;;;;19.91;56.09;101031.94;8299282;28;20038;-63
2022/05/13 09:17:33;;;;;;;4.93;0.82;;;;;;;20.58;57.38;101025.28;8304681;28;20407;-63
2022/05/13 09:21:37;;;;;;;5.32;0.88;;;;;;;20.48;54.82;101035.72;8304065;28;20534;-62
2022/05/13 09:30:16;;;;;;;3.47;0.60;;;;;;;20.25;56.60;101035.00;8401880;27;20412;-62
2022/05/13 09:34:39;;;;;;;4.70;0.80;;;;;;;20.42;55.14;101044.72;8384059;28;20041;-62
2022/05/13 09:38:44;;;;;;;17.13;1.73;;;;;;;20.65;55.86;101049.03;8384095;28;20394;-62
2022/05/13 09:42:49;;;;;;;6.18;0.98;;;;;;;20.30;54.33;101049.88;8372313;28;20025;-63
2022/05/13 09:47:07;;;;;;;4.38;1.15;;;;;;;20.20;54.83;101048.44;8379258;28;20196;-63
2022/05/13 09:51:28;;;;;;;5.88;1.13;;;;;;;21.56;52.69;101038.19;8372426;28;20041;-63
2022/05/13 09:55:35;;;;;;;6.90;1.20;;;;;;;23.44;49.23;101028.31;8388553;28;20025;-63
2022/05/13 09:59:40;;;;;;;4.97;0.77;;;;;;;23.05;48.97;101043.75;8384974;28;20033;-63
2022/05/13 10:03:41;;;;;;;7.85;0.82;;;;;;;24.48;45.26;101019.91;8367267;28;20053;-63
2022/05/13 10:07:52;;;;;;;9.68;0.90;;;;;;;23.81;46.16;101028.53;8385097;28;20044;-63
2022/05/13 10:16:16;;;;;;;8.70;1.05;;;;;;;24.33;47.05;101036.75;8368539;28;20440;-63
2022/05/13 10:20:29;;;;;;;2.33;0.75;;;;;;;24.77;45.49;101031.28;8367425;28;20040;-63
2022/05/13 10:24:55;;;;;;;6.57;0.60;;;;;;;24.22;45.64;101031.06;8366189;28;20033;-63
2022/05/13 10:29:16;;;;;;;8.93;0.70;;;;;;;24.07;44.64;101039.59;8391277;28;20048;-63
2022/05/13 10:33:25;;;;;;;7.13;0.95;;;;;;;24.05;45.31;101029.81;8361995;28;20061;-63
2022/05/13 10:37:34;;;;;;;4.82;1.20;;;;;;;25.36;43.49;101039.25;8376717;28;20048;-61
2022/05/13 10:41:57;;;;;;;7.97;0.80;;;;;;;25.70;44.01;101041.53;8364949;28;20037;-62
2022/05/13 10:46:10;;;;;;;3.40;0.67;;;;;;;27.04;43.72;101043.28;8352485;28;20076;-62
2022/05/13 10:50:17;;;;;;;7.00;0.90;;;;;;;27.24;41.96;101038.31;8361859;28;20469;-62
2022/05/13 10:54:25;;;;;;;5.13;0.95;;;;;;;26.30;43.38;101034.38;8363120;28;20100;-62
2022/05/13 10:58:39;;;;;;;5.35;0.82;;;;;;;26.89;41.57;101033.69;8360666;28;20055;-62
2022/05/13 11:03:19;;;;;;;5.70;0.60;;;;;;;26.35;41.98;101032.59;8352058;28;20026;-63
2022/05/13 11:07:45;;;;;;;5.47;0.93;;;;;;;24.30;44.08;101028.03;8358396;28;20037;-63
2022/05/13 11:11:46;;;;;;;5.03;0.70;;;;;;;24.85;44.26;101030.19;8357017;28;20448;-62
2022/05/13 11:16:00;;;;;;;5.97;1.10;;;;;;;25.60;43.29;101030.13;8367981;28;20059;-63
2022/05/13 11:20:28;;;;;;;5.68;1.15;;;;;;;26.56;42.61;101025.75;8372451;28;20119;-63
2022/05/13 11:26:08;;;;;;;5.10;0.73;;;;;;;26.97;42.57;101019.47;8357245;28;20033;-63
2022/05/13 11:29:38;;;;;;;5.90;0.80;;;;;;;27.51;41.37;101019.31;8362119;28;20049;-62
2022/05/13 11:33:49;;;;;;;6.25;0.82;;;;;;;26.07;42.22;101017.59;8363054;28;20669;-62
2022/05/13 11:37:55;;;;;;;1.85;0.60;;;;;;;25.65;42.51;101013.69;8356657;28;20043;-60
2022/05/13 11:46:48;;;;;;;5.28;0.60;;;;;;;26.63;42.53;101029.31;8425069;27;22303;-62
2022/05/13 11:50:49;;;;;;;4.40;0.80;;;;;;;27.16;41.23;101021.94;8420979;28;20036;-62
2022/05/13 11:55:17;;;;;;;3.47;0.93;;;;;;;26.19;41.10;101027.66;8431442;28;20037;-62
2022/05/13 12:08:31;;;;;;;4.97;0.90;;;;;;;23.44;46.44;101020.03;8326923;28;20376;-62
2022/05/13 12:17:27;;;;;;;9.40;0.85;;;;;;;22.69;46.73;101012.88;8405432;27;20465;-61
2022/05/13 12:21:38;;;;;;;5.78;0.80;;;;;;;22.53;48.88;101016.00;8396898;28;20048;-62
2022/05/13 12:25:54;;;;;;;3.03;0.60;;;;;;;22.70;47.78;101011.84;8404403;28;20041;-62
2022/05/13 12:30:00;;;;;;;3.65;0.57;;;;;;;22.21;49.29;101019.41;8403902;28;20100;-62
2022/05/13 12:38:24;;;;;;;2.35;0.70;;;;;;;22.34;48.73;101011.22;8411476;28;20063;-62
2022/05/13 12:42:47;;;;;;;291.65;23.98;;;;;;;22.73;49.93;101014.16;8393846;28;20499;-64
2022/05/13 12:46:51;;;;;;;19.43;1.63;;;;;;;22.47;49.14;101005.75;8401568;28;20033;-62
2022/05/13 12:55:18;;;;;;;3.65;0.70;;;;;;;22.53;51.52;101006.88;8356139;28;20427;-62
2022/05/13 12:59:24;;;;;;;2.45;0.65;;;;;;;22.39;48.77;100997.69;8346030;28;20042;-62
2022/05/13 13:03:25;;;;;;;1.73;0.70;;;;;;;22.41;48.40;101006.56;8334402;28;20057;-62
2022/05/13 13:07:28;;;;;;;6.82;0.98;;;;;;;22.14;48.68;101004.75;8330807;28;20094;-62
2022/05/13 13:11:35;;;;;;;5.47;0.90;;;;;;;22.26;49.97;101000.34;8336434;28;20129;-62
2022/05/13 13:15:40;;;;;;;3.78;0.77;;;;;;;22.34;50.89;100993.81;8374550;28;20513;-62
2022/05/13 13:19:45;;;;;;;5.15;1.15;;;;;;;22.41;50.59;100990.03;8371705;28;20040;-62
2022/05/13 13:23:46;;;;;;;7.72;1.20;;;;;;;22.74;50.05;100977.25;8371506;28;20325;-62
2022/05/13 13:27:46;;;;;;;3.25;0.70;;;;;;;22.64;50.04;100985.09;8373104;28;20037;-62
2022/05/13 13:31:48;;;;;;;3.17;0.98;;;;;;;22.43;49.38;100970.53;8373253;28;20037;-62
2022/05/13 13:35:49;;;;;;;3.40;0.98;;;;;;;22.21;49.58;100966.22;8370794;28;20040;-62
2022/05/13 13:39:49;;;;;;;5.00;1.00;;;;;;;22.28;49.78;100967.94;8373466;28;20037;-62
2022/05/13 13:43:54;;;;;;;3.22;1.13;;;;;;;21.99;50.05;100967.38;8371422;28;20397;-62
2022/05/13 13:47:55;;;;;;;7.20;1.30;;;;;;;22.30;50.03;100965.84;8371606;28;20033;-62
2022/05/13 13:52:00;;;;;;;7.60;1.23;;;;;;;22.25;50.64;100962.84;8370537;28;20056;-62
2022/05/13 13:56:07;;;;;;;3.95;1.00;;;;;;;22.22;50.70;100963.25;8370392;28;20037;-62
2022/05/13 14:00:14;;;;;;;3.55;0.88;;;;;;;21.88;51.36;100965.19;8367868;28;20500;-62
2022/05/13 14:04:21;;;;;;;4.25;1.10;;;;;;;22.06;51.57;100969.13;8359406;28;20037;-62
2022/05/13 14:08:24;;;;;;;9.15;1.17;;;;;;;22.05;50.67;100967.41;8349794;28;20509;-62
2022/05/13 14:12:26;;;;;;;2.05;0.75;;;;;;;22.38;51.26;100965.66;8336824;28;20089;-62
2022/05/13 14:16:31;;;;;;;3.33;1.13;;;;;;;22.26;51.72;100964.53;8340196;28;20746;-62
2022/05/13 14:20:34;;;;;;;6.97;1.80;;;;;;;22.08;52.00;100961.47;8345617;28;20537;-62
2022/05/13 14:24:40;;;;;;;5.77;1.63;;;;;;;22.16;51.46;100964.06;8344542;28;20091;-62
2022/05/13 14:28:49;;;;;;;5.20;1.50;;;;;;;22.03;51.23;100966.78;8304348;28;20033;-62
2022/05/13 14:32:56;;;;;;;8.20;1.40;;;;;;;22.20;50.26;100948.81;8304158;28;20068;-62
2022/05/13 14:36:59;;;;;;;6.68;1.35;;;;;;;22.34;50.13;100952.50;8290253;28;20074;-62
2022/05/13 14:41:00;;;;;;;3.97;1.27;;;;;;;22.25;49.93;100949.06;8303669;28;20461;-62
2022/05/13 14:45:20;;;;;;;3.97;1.30;;;;;;;22.12;51.45;100946.28;8306594;28;20038;-62
2022/05/13 14:54:01;;;;;;;6.20;1.73;;;;;;;22.13;49.99;100945.19;8398054;27;20524;-62
2022/05/13 14:58:17;;;;;;;6.00;1.60;;;;;;;22.07;52.80;100943.28;8389757;28;21925;-62
2022/05/13 15:02:45;;;;;;;6.60;1.70;;;;;;;21.80;51.12;100946.94;8434896;27;20101;-62
2022/05/13 15:06:47;;;;;;;3.33;1.45;;;;;;;21.83;51.32;100938.25;8367230;27;20417;-63
2022/05/13 15:10:47;;;;;;;9.13;1.20;;;;;;;21.87;52.14;100947.84;8371915;27;20118;-62
2022/05/13 15:14:48;;;;;;;4.93;1.13;;;;;;;21.83;51.94;100952.03;8377694;27;20054;-62
2022/05/13 15:18:48;;;;;;;6.55;1.10;;;;;;;21.82;51.37;100944.84;8423279;27;20277;-62
2022/05/13 15:22:50;;;;;;;4.10;1.20;;;;;;;21.77;52.12;100944.56;8411298;27;20083;-62
2022/05/13 15:26:51;;;;;;;4.15;1.20;;;;;;;21.52;51.65;100948.81;8418804;27;20115;-61
2022/05/13 15:30:55;;;;;;;6.18;1.45;;;;;;;21.55;53.89;100945.69;8428819;27;20090;-61
2022/05/13 15:34:56;;;;;;;2.33;1.20;;;;;;;21.63;53.66;100950.19;8423301;27;20044;-61
2022/05/13 15:38:59;;;;;;;6.30;1.10;;;;;;;21.72;52.38;100955.34;8424809;27;20108;-62
2022/05/13 15:42:59;;;;;;;6.82;1.30;;;;;;;21.70;52.86;100951.91;8420774;27;20062;-61
2022/05/13 15:47:02;;;;;;;6.70;1.55;;;;;;;21.59;53.27;100949.72;8420164;27;20447;-61
2022/05/13 15:55:28;;;;;;;6.50;1.52;;;;;;;21.52;52.60;100943.31;8397148;27;20182;-62
2022/05/13 15:59:30;;;;;;;4.32;0.90;;;;;;;21.53;52.56;100950.50;8409783;27;20089;-63
2022/05/13 16:03:32;;;;;;;5.90;1.40;;;;;;;21.52;52.63;100947.97;8396991;28;20060;-62
2022/05/13 16:07:32;;;;;;;3.95;1.10;;;;;;;21.42;53.04;100941.97;8389776;28;20084;-62
2022/05/13 16:11:35;;;;;;;7.10;1.20;;;;;;;21.47;54.83;100945.81;8407931;28;20055;-63
2022/05/13 16:15:40;;;;;;;9.18;1.30;;;;;;;21.36;54.98;100943.63;8394419;28;20033;-62
2022/05/13 16:19:43;;;;;;;6.82;1.42;;;;;;;21.37;55.29;100939.81;8383907;28;20056;-63
2022/05/13 16:23:46;;;;;;;5.25;1.42;;;;;;;21.24;55.61;100946.09;8398698;28;20037;-63
2022/05/13 16:27:49;;;;;;;6.03;1.30;;;;;;;21.30;55.69;100947.19;8399281;28;20044;-63
2022/05/13 16:31:49;;;;;;;8.20;1.45;;;;;;;21.24;56.78;100940.59;8393821;28;20044;-62
2022/05/13 16:35:50;;;;;;;3.60;1.67;;;;;;;21.01;57.35;100941.84;8395957;28;20044;-62
2022/05/13 16:39:50;;;;;;;8.55;1.92;;;;;;;21.03;57.12;100942.50;8392087;28;20067;-62
2022/05/13 16:43:51;;;;;;;8.07;1.60;;;;;;;20.96;56.81;100936.09;8392663;28;20036;-62
2022/05/13 16:47:52;;;;;;;6.83;1.60;;;;;;;21.11;55.37;100936.88;8403383;28;20504;-62
2022/05/13 16:51:52;;;;;;;6.38;1.30;;;;;;;21.17;55.91;100942.41;8387235;28;20780;-62
2022/05/13 16:55:53;;;;;;;5.93;1.43;;;;;;;21.17;56.55;100944.31;8384944;28;20060;-61
2022/05/13 16:59:53;;;;;;;7.18;1.50;;;;;;;21.04;55.73;100946.94;8392990;28;20037;-61
2022/05/13 17:03:53;;;;;;;7.22;1.88;;;;;;;20.91;56.49;100955.03;8377022;28;20037;-61
2022/05/13 17:07:54;;;;;;;6.07;1.55;;;;;;;20.91;56.48;100949.53;8392261;28;20040;-62
2022/05/13 17:16:16;;;;;;;10.20;2.35;;;;;;;20.59;57.45;100944.56;8384730;28;20105;-61
2022/05/13 17:20:17;;;;;;;14.88;2.42;;;;;;;20.53;57.91;100956.34;8378418;28;20283;-61
2022/05/13 17:24:20;;;;;;;9.02;1.63;;;;;;;20.49;58.07;100955.84;8393740;28;20043;-61
2022/05/13 17:28:21;;;;;;;10.10;1.53;;;;;;;20.31;58.33;100951.84;8391881;28;20509;-61
2022/05/13 17:32:23;;;;;;;8.38;2.00;;;;;;;20.09;59.36;100958.28;8394791;28;20302;-62
2022/05/13 17:36:24;;;;;;;6.75;1.60;;;;;;;20.09;59.40;100959.13;8402037;28;20044;-62
2022/05/13 17:40:31;;;;;;;10.13;1.73;;;;;;;20.05;59.67;100962.44;8384500;28;20040;-61
2022/05/13 17:44:33;;;;;;;11.95;1.83;;;;;;;19.80;60.65;100952.81;8404204;28;20115;-61
2022/05/13 17:48:34;;;;;;;10.57;1.65;;;;;;;19.67;60.95;100958.13;8409800;28;20033;-61
2022/05/13 17:52:35;;;;;;;7.65;1.80;;;;;;;19.48;61.97;100964.16;8407548;28;20476;-61
2022/05/13 17:56:35;;;;;;;9.48;1.63;;;;;;;19.52;61.36;100961.69;8404126;28;20146;-61
2022/05/13 18:00:37;;;;;;;9.80;1.58;;;;;;;19.41;61.99;100964.91;8390377;28;20034;-61
2022/05/13 18:04:38;;;;;;;13.95;1.88;;;;;;;19.33;62.01;100961.38;8399289;28;20086;-61
2022/05/13 18:08:40;;;;;;;9.10;2.20;;;;;;;19.38;61.26;100969.91;8398233;28;20500;-61
2022/05/13 18:12:42;;;;;;;8.20;1.70;;;;;;;19.29;61.81;100965.53;8390161;28;20033;-61
2022/05/13 18:16:42;;;;;;;9.23;2.25;;;;;;;19.27;62.35;100968.44;8399025;28;20059;-61
2022/05/13 18:20:42;;;;;;;14.07;2.28;;;;;;;19.27;62.24;100970.34;8386862;28;20036;-61
2022/05/13 18:24:43;;;;;;;8.32;1.80;;;;;;;19.03;63.59;100968.63;8383858;28;20508;-61
2022/05/13 18:28:44;;;;;;;8.65;1.85;;;;;;;18.91;64.45;100972.84;8396717;28;20377;-61
2022/05/13 18:32:45;;;;;;;13.45;2.47;;;;;;;18.83;64.64;100967.44;8393090;28;20124;-61
2022/05/13 18:36:46;;;;;;;9.93;1.90;;;;;;;19.78;62.13;100966.72;8400986;28;20033;-57
2022/05/13 18:46:08;;;;;;;9.88;1.70;;;;;;;20.46;59.98;100969.97;8360842;28;20091;-62
2022/05/13 18:49:29;;;;;;;15.00;2.05;;;;;;;20.60;59.76;100979.22;8364579;28;20091;-62
2022/05/13 18:53:31;;;;;;;9.88;1.65;;;;;;;20.48;59.73;100980.78;8363166;28;20509;-62
2022/05/13 18:57:32;;;;;;;12.27;1.98;;;;;;;20.64;59.67;100991.53;8368719;28;20144;-61
2022/05/13 19:01:33;;;;;;;11.05;2.00;;;;;;;18.85;63.13;100984.53;8381251;28;20037;-61
2022/05/13 19:05:34;;;;;;;29.73;3.05;;;;;;;18.47;64.78;100996.44;8387735;28;20037;-62
2022/05/13 19:09:34;;;;;;;8.20;1.98;;;;;;;18.13;66.22;100993.16;8392070;28;20047;-63
2022/05/13 19:13:36;;;;;;;8.15;1.85;;;;;;;18.08;66.23;100992.00;8377023;28;20069;-61
2022/05/13 19:17:37;;;;;;;11.32;2.42;;;;;;;17.84;67.05;100995.63;8384357;28;20066;-61
2022/05/13 19:21:38;;;;;;;8.82;1.80;;;;;;;17.83;67.31;100998.53;8381227;28;20037;-62
2022/05/13 19:25:38;;;;;;;14.68;2.20;;;;;;;17.72;67.54;101005.28;8386790;28;20040;-62
2022/05/13 19:29:38;;;;;;;11.75;1.98;;;;;;;17.76;67.47;101012.09;8379909;28;20104;-61
2022/05/13 19:33:41;;;;;;;8.35;1.90;;;;;;;17.53;68.47;101002.91;8395189;28;20436;-62
2022/05/13 19:37:41;;;;;;;9.65;2.10;;;;;;;17.41;68.76;101001.50;8405928;28;20090;-62
2022/05/13 19:41:42;;;;;;;9.48;2.40;;;;;;;17.32;69.25;101005.28;8384370;28;20104;-61
2022/05/13 19:45:43;;;;;;;10.52;2.13;;;;;;;17.29;69.36;101013.81;8404768;28;20048;-62
2022/05/13 19:49:44;;;;;;;12.32;2.90;;;;;;;17.23;69.68;101014.53;8406720;28;20386;-62
2022/05/13 19:53:45;;;;;;;17.02;2.85;;;;;;;17.16;69.98;101018.94;8399797;28;20045;-62
2022/05/13 19:57:45;;;;;;;9.32;2.03;;;;;;;17.19;70.07;101018.59;8391603;28;20032;-62
2022/05/13 20:01:47;;;;;;;9.45;2.22;;;;;;;17.10;70.54;101025.09;8398327;28;20032;-62
2022/05/13 20:10:39;;;;;;;10.55;2.60;;;;;;;16.72;71.79;101028.47;8400167;28;20039;-62